sensor_id;sensor_type;location;lat;lon;timestamp;pressure;altitude;pressure_sealevel;temperature;humidity
69836;BME280;57132;51.972;4.450;2023-04-10T00:01:01;101956.03;;;9.53;100.00
69836;BME280;57132;51.972;4.450;2023-04-10T00:03:26;101963.03;;;9.56;100.00
69836;BME280;57132;51.972;4.450;2023-04-10T00:05:53;101954.94;;;9.57;100.00
69836;BME280;57132;51.972;4.450;2023-04-10T00:08:21;101947.66;;;9.61;100.00
69836;BME280;57132;51.972;4.450;2023-04-10T00:10:47;101947.81;;;9.58;100.00
69836;BME280;57132;51.972;4.450;2023-04-10T00:13:12;101948.69;;;9.58;100.00
69836;BME280;57132;51.972;4.450;2023-04-10T00:15:38;101947.91;;;9.56;100.00
69836;BME280;57132;51.972;4.450;2023-04-10T00:18:03;101936.47;;;9.54;100.00
69836;BME280;57132;51.972;4.450;2023-04-10T00:20:28;101943.66;;;9.52;100.00
69836;BME280;57132;51.972;4.450;2023-04-10T00:22:54;101937.59;;;9.49;100.00
69836;BME280;57132;51.972;4.450;2023-04-10T00:25:19;101934.16;;;9.47;100.00
69836;BME280;57132;51.972;4.450;2023-04-10T00:27:47;101930.84;;;9.42;100.00
69836;BME280;57132;51.972;4.450;2023-04-10T00:30:12;101935.63;;;9.35;100.00
69836;BME280;57132;51.972;4.450;2023-04-10T00:32:37;101936.03;;;9.26;100.00
69836;BME280;57132;51.972;4.450;2023-04-10T00:35:03;101928.59;;;9.15;100.00
69836;BME280;57132;51.972;4.450;2023-04-10T00:37:28;101928.72;;;9.12;100.00
69836;BME280;57132;51.972;4.450;2023-04-10T00:39:53;101925.25;;;9.10;100.00
69836;BME280;57132;51.972;4.450;2023-04-10T00:42:19;101921.88;;;9.06;100.00
69836;BME280;57132;51.972;4.450;2023-04-10T00:44:44;101919.50;;;9.00;100.00
69836;BME280;57132;51.972;4.450;2023-04-10T00:47:11;101914.41;;;8.96;100.00
69836;BME280;57132;51.972;4.450;2023-04-10T00:49:37;101906.47;;;8.94;100.00
69836;BME280;57132;51.972;4.450;2023-04-10T00:52:02;101903.16;;;8.89;100.00
69836;BME280;57132;51.972;4.450;2023-04-10T00:54:28;101914.69;;;8.90;100.00
69836;BME280;57132;51.972;4.450;2023-04-10T00:56:54;101901.50;;;8.86;100.00
69836;BME280;57132;51.972;4.450;2023-04-10T00:59:21;101896.63;;;8.77;100.00
69836;BME280;57132;51.972;4.450;2023-04-10T01:01:47;101890.16;;;8.83;100.00
69836;BME280;57132;51.972;4.450;2023-04-10T01:04:13;101885.88;;;8.79;100.00
69836;BME280;57132;51.972;4.450;2023-04-10T01:06:51;101880.56;;;8.79;100.00
69836;BME280;57132;51.972;4.450;2023-04-10T01:15:07;101859.84;;;8.67;100.00
69836;BME280;57132;51.972;4.450;2023-04-10T01:17:50;101869.06;;;8.59;100.00
69836;BME280;57132;51.972;4.450;2023-04-10T01:20:21;101861.94;;;8.60;100.00
69836;BME280;57132;51.972;4.450;2023-04-10T01:25:57;101854.44;;;8.49;100.00
69836;BME280;57132;51.972;4.450;2023-04-10T01:28:51;101843.78;;;8.49;100.00
69836;BME280;57132;51.972;4.450;2023-04-10T01:31:28;101850.13;;;8.47;100.00
69836;BME280;57132;51.972;4.450;2023-04-10T01:33:59;101844.06;;;8.43;100.00
69836;BME280;57132;51.972;4.450;2023-04-10T01:36:27;101846.59;;;8.46;100.00
69836;BME280;57132;51.972;4.450;2023-04-10T01:38:55;101846.25;;;8.54;100.00
69836;BME280;57132;51.972;4.450;2023-04-10T01:41:22;101843.00;;;8.47;100.00
69836;BME280;57132;51.972;4.450;2023-04-10T01:43:50;101842.47;;;8.39;100.00
69836;BME280;57132;51.972;4.450;2023-04-10T01:46:18;101835.44;;;8.38;100.00
69836;BME280;57132;51.972;4.450;2023-04-10T01:48:47;101830.50;;;8.29;100.00
69836;BME280;57132;51.972;4.450;2023-04-10T01:51:14;101836.25;;;8.20;100.00
69836;BME280;57132;51.972;4.450;2023-04-10T01:53:42;101839.09;;;8.15;100.00
69836;BME280;57132;51.972;4.450;2023-04-10T01:56:11;101839.78;;;8.00;100.00
69836;BME280;57132;51.972;4.450;2023-04-10T01:58:37;101839.19;;;7.93;100.00
69836;BME280;57132;51.972;4.450;2023-04-10T02:01:02;101831.09;;;7.96;100.00
69836;BME280;57132;51.972;4.450;2023-04-10T02:03:28;101834.81;;;7.92;100.00
69836;BME280;57132;51.972;4.450;2023-04-10T02:06:25;101834.94;;;7.89;100.00
69836;BME280;57132;51.972;4.450;2023-04-10T02:08:56;101829.84;;;7.84;100.00
69836;BME280;57132;51.972;4.450;2023-04-10T02:14:03;101843.72;;;7.71;100.00
69836;BME280;57132;51.972;4.450;2023-04-10T02:16:30;101849.09;;;7.69;100.00
69836;BME280;57132;51.972;4.450;2023-04-10T02:18:57;101847.03;;;7.76;100.00
69836;BME280;57132;51.972;4.450;2023-04-10T02:21:24;101839.63;;;7.84;100.00
69836;BME280;57132;51.972;4.450;2023-04-10T02:23:51;101838.19;;;7.96;100.00
69836;BME280;57132;51.972;4.450;2023-04-10T02:26:16;101841.19;;;8.08;100.00
69836;BME280;57132;51.972;4.450;2023-04-10T02:28:41;101835.44;;;8.18;100.00
69836;BME280;57132;51.972;4.450;2023-04-10T02:31:07;101832.16;;;8.31;100.00
69836;BME280;57132;51.972;4.450;2023-04-10T02:33:32;101841.34;;;8.45;100.00
69836;BME280;57132;51.972;4.450;2023-04-10T02:35:59;101839.41;;;8.48;100.00
69836;BME280;57132;51.972;4.450;2023-04-10T02:38:25;101840.06;;;8.53;100.00
69836;BME280;57132;51.972;4.450;2023-04-10T02:40:50;101836.31;;;8.57;100.00
69836;BME280;57132;51.972;4.450;2023-04-10T02:43:16;101848.63;;;8.60;100.00
69836;BME280;57132;51.972;4.450;2023-04-10T02:45:41;101848.19;;;8.69;100.00
69836;BME280;57132;51.972;4.450;2023-04-10T02:48:06;101842.38;;;8.80;100.00
69836;BME280;57132;51.972;4.450;2023-04-10T02:50:32;101844.94;;;8.81;100.00
69836;BME280;57132;51.972;4.450;2023-04-10T02:52:57;101846.75;;;8.81;100.00
69836;BME280;57132;51.972;4.450;2023-04-10T02:55:23;101841.94;;;8.89;100.00
69836;BME280;57132;51.972;4.450;2023-04-10T02:57:48;101841.78;;;8.92;100.00
69836;BME280;57132;51.972;4.450;2023-04-10T03:00:14;101831.00;;;8.95;100.00
69836;BME280;57132;51.972;4.450;2023-04-10T03:02:39;101838.63;;;9.03;100.00
69836;BME280;57132;51.972;4.450;2023-04-10T03:05:05;101833.44;;;9.00;100.00
69836;BME280;57132;51.972;4.450;2023-04-10T03:07:32;101830.06;;;8.96;100.00
69836;BME280;57132;51.972;4.450;2023-04-10T03:09:58;101821.94;;;8.99;100.00
69836;BME280;57132;51.972;4.450;2023-04-10T03:12:23;101824.34;;;9.04;100.00
69836;BME280;57132;51.972;4.450;2023-04-10T03:14:48;101823.56;;;9.02;100.00
69836;BME280;57132;51.972;4.450;2023-04-10T03:17:14;101828.66;;;9.06;100.00
69836;BME280;57132;51.972;4.450;2023-04-10T03:19:39;101820.38;;;9.13;100.00
69836;BME280;57132;51.972;4.450;2023-04-10T03:22:04;101822.25;;;9.10;100.00
69836;BME280;57132;51.972;4.450;2023-04-10T03:24:29;101831.88;;;9.13;100.00
69836;BME280;57132;51.972;4.450;2023-04-10T03:26:55;101828.09;;;9.19;100.00
69836;BME280;57132;51.972;4.450;2023-04-10T03:29:21;101813.97;;;9.17;100.00
69836;BME280;57132;51.972;4.450;2023-04-10T03:31:46;101819.16;;;9.20;100.00
69836;BME280;57132;51.972;4.450;2023-04-10T03:34:12;101808.50;;;9.20;100.00
69836;BME280;57132;51.972;4.450;2023-04-10T03:36:37;101797.25;;;9.13;100.00
69836;BME280;57132;51.972;4.450;2023-04-10T03:39:02;101795.13;;;9.02;100.00
69836;BME280;57132;51.972;4.450;2023-04-10T03:41:28;101792.47;;;9.02;100.00
69836;BME280;57132;51.972;4.450;2023-04-10T03:43:53;101794.34;;;9.00;100.00
69836;BME280;57132;51.972;4.450;2023-04-10T03:46:18;101779.00;;;9.05;100.00
69836;BME280;57132;51.972;4.450;2023-04-10T03:48:44;101781.75;;;9.04;100.00
69836;BME280;57132;51.972;4.450;2023-04-10T03:51:09;101778.13;;;9.05;100.00
69836;BME280;57132;51.972;4.450;2023-04-10T03:53:34;101775.38;;;9.06;100.00
69836;BME280;57132;51.972;4.450;2023-04-10T03:56:01;101774.53;;;9.06;100.00
69836;BME280;57132;51.972;4.450;2023-04-10T03:58:27;101770.94;;;9.07;100.00
69836;BME280;57132;51.972;4.450;2023-04-10T04:00:52;101769.22;;;9.06;100.00
69836;BME280;57132;51.972;4.450;2023-04-10T04:03:18;101779.81;;;9.07;100.00
69836;BME280;57132;51.972;4.450;2023-04-10T04:05:43;101765.69;;;9.05;100.00
69836;BME280;57132;51.972;4.450;2023-04-10T04:08:08;101768.19;;;9.08;100.00
69836;BME280;57132;51.972;4.450;2023-04-10T04:10:35;101765.38;;;9.11;100.00
69836;BME280;57132;51.972;4.450;2023-04-10T04:13:00;101770.72;;;9.11;100.00
69836;BME280;57132;51.972;4.450;2023-04-10T04:15:26;101765.53;;;9.08;100.00
69836;BME280;57132;51.972;4.450;2023-04-10T04:17:51;101767.91;;;9.15;100.00
69836;BME280;57132;51.972;4.450;2023-04-10T04:20:16;101764.31;;;9.16;100.00
69836;BME280;57132;51.972;4.450;2023-04-10T04:22:42;101764.06;;;9.20;100.00
69836;BME280;57132;51.972;4.450;2023-04-10T04:25:08;101758.81;;;9.19;100.00
69836;BME280;57132;51.972;4.450;2023-04-10T04:27:36;101753.56;;;9.17;100.00
69836;BME280;57132;51.972;4.450;2023-04-10T04:30:05;101749.09;;;9.18;100.00
69836;BME280;57132;51.972;4.450;2023-04-10T04:32:30;101746.59;;;9.15;100.00
69836;BME280;57132;51.972;4.450;2023-04-10T04:34:56;101737.50;;;9.19;100.00
69836;BME280;57132;51.972;4.450;2023-04-10T04:37:21;101743.69;;;9.19;100.00
69836;BME280;57132;51.972;4.450;2023-04-10T04:39:46;101735.84;;;9.16;100.00
69836;BME280;57132;51.972;4.450;2023-04-10T04:42:12;101732.41;;;9.14;100.00
69836;BME280;57132;51.972;4.450;2023-04-10T04:44:37;101727.16;;;9.13;100.00
69836;BME280;57132;51.972;4.450;2023-04-10T04:47:02;101730.69;;;9.13;100.00
69836;BME280;57132;51.972;4.450;2023-04-10T04:49:27;101730.38;;;9.19;100.00
69836;BME280;57132;51.972;4.450;2023-04-10T04:51:53;101718.69;;;9.22;100.00
69836;BME280;57132;51.972;4.450;2023-04-10T04:54:18;101724.00;;;9.22;100.00
69836;BME280;57132;51.972;4.450;2023-04-10T04:56:43;101724.66;;;9.27;100.00
69836;BME280;57132;51.972;4.450;2023-04-10T04:59:09;101732.31;;;9.33;100.00
69836;BME280;57132;51.972;4.450;2023-04-10T05:01:35;101733.97;;;9.35;100.00
69836;BME280;57132;51.972;4.450;2023-04-10T05:04:01;101726.75;;;9.38;100.00
69836;BME280;57132;51.972;4.450;2023-04-10T05:06:26;101729.66;;;9.33;100.00
69836;BME280;57132;51.972;4.450;2023-04-10T05:08:51;101723.31;;;9.35;100.00
69836;BME280;57132;51.972;4.450;2023-04-10T05:11:17;101727.72;;;9.36;100.00
69836;BME280;57132;51.972;4.450;2023-04-10T05:13:43;101721.44;;;9.38;100.00
69836;BME280;57132;51.972;4.450;2023-04-10T05:16:08;101718.53;;;9.42;100.00
69836;BME280;57132;51.972;4.450;2023-04-10T05:18:34;101718.75;;;9.38;100.00
69836;BME280;57132;51.972;4.450;2023-04-10T05:20:59;101723.00;;;9.42;100.00
69836;BME280;57132;51.972;4.450;2023-04-10T05:23:25;101716.50;;;9.47;99.36
69836;BME280;57132;51.972;4.450;2023-04-10T05:25:51;101729.59;;;9.52;98.64
69836;BME280;57132;51.972;4.450;2023-04-10T05:28:16;101716.00;;;9.56;98.32
69836;BME280;57132;51.972;4.450;2023-04-10T05:30:42;101714.91;;;9.60;97.21
69836;BME280;57132;51.972;4.450;2023-04-10T05:33:07;101720.00;;;9.65;97.40
69836;BME280;57132;51.972;4.450;2023-04-10T05:35:32;101715.44;;;9.67;95.76
69836;BME280;57132;51.972;4.450;2023-04-10T05:37:57;101708.31;;;9.68;96.12
69836;BME280;57132;51.972;4.450;2023-04-10T05:40:24;101710.72;;;9.72;95.31
69836;BME280;57132;51.972;4.450;2023-04-10T05:42:50;101706.25;;;9.73;95.98
69836;BME280;57132;51.972;4.450;2023-04-10T05:45:16;101712.44;;;9.73;95.67
69836;BME280;57132;51.972;4.450;2023-04-10T05:47:42;101706.41;;;9.70;96.39
69836;BME280;57132;51.972;4.450;2023-04-10T05:50:08;101694.81;;;9.71;94.85
69836;BME280;57132;51.972;4.450;2023-04-10T05:52:33;101693.72;;;9.75;93.67
69836;BME280;57132;51.972;4.450;2023-04-10T05:54:59;101687.13;;;9.82;93.74
69836;BME280;57132;51.972;4.450;2023-04-10T05:57:24;101690.38;;;9.87;93.05
69836;BME280;57132;51.972;4.450;2023-04-10T05:59:50;101694.50;;;9.93;92.31
69836;BME280;57132;51.972;4.450;2023-04-10T06:02:15;101696.84;;;9.99;91.49
69836;BME280;57132;51.972;4.450;2023-04-10T06:04:41;101698.25;;;10.06;90.28
69836;BME280;57132;51.972;4.450;2023-04-10T06:07:06;101695.91;;;10.00;92.88
69836;BME280;57132;51.972;4.450;2023-04-10T06:09:32;101685.75;;;9.91;93.90
69836;BME280;57132;51.972;4.450;2023-04-10T06:11:57;101684.09;;;9.88;95.18
69836;BME280;57132;51.972;4.450;2023-04-10T06:14:22;101677.03;;;9.71;97.15
69836;BME280;57132;51.972;4.450;2023-04-10T06:16:48;101673.56;;;9.69;97.74
69836;BME280;57132;51.972;4.450;2023-04-10T06:19:13;101668.47;;;9.65;98.54
69836;BME280;57132;51.972;4.450;2023-04-10T06:21:38;101669.59;;;9.60;99.09
69836;BME280;57132;51.972;4.450;2023-04-10T06:24:03;101661.50;;;9.62;99.35
69836;BME280;57132;51.972;4.450;2023-04-10T06:26:29;101651.72;;;9.63;99.58
69836;BME280;57132;51.972;4.450;2023-04-10T06:28:54;101649.66;;;9.68;99.67
69836;BME280;57132;51.972;4.450;2023-04-10T06:31:20;101640.00;;;9.65;99.48
69836;BME280;57132;51.972;4.450;2023-04-10T06:33:49;101639.75;;;9.70;98.35
69836;BME280;57132;51.972;4.450;2023-04-10T06:36:15;101635.06;;;9.75;97.33
69836;BME280;57132;51.972;4.450;2023-04-10T06:38:41;101633.16;;;9.77;96.33
69836;BME280;57132;51.972;4.450;2023-04-10T06:41:06;101627.66;;;9.80;95.14
69836;BME280;57132;51.972;4.450;2023-04-10T06:43:37;101632.00;;;9.98;95.32
69836;BME280;57132;51.972;4.450;2023-04-10T06:46:03;101624.69;;;10.02;94.43
69836;BME280;57132;51.972;4.450;2023-04-10T06:48:30;101628.47;;;10.14;96.29
69836;BME280;57132;51.972;4.450;2023-04-10T06:50:55;101629.66;;;10.24;93.58
69836;BME280;57132;51.972;4.450;2023-04-10T06:53:21;101617.03;;;10.27;93.27
69836;BME280;57132;51.972;4.450;2023-04-10T06:55:46;101621.16;;;10.33;92.48
69836;BME280;57132;51.972;4.450;2023-04-10T06:58:12;101620.81;;;10.39;92.85
69836;BME280;57132;51.972;4.450;2023-04-10T07:00:37;101626.84;;;10.43;93.84
69836;BME280;57132;51.972;4.450;2023-04-10T07:03:02;101623.91;;;10.47;92.97
69836;BME280;57132;51.972;4.450;2023-04-10T07:05:28;101619.25;;;10.51;92.67
69836;BME280;57132;51.972;4.450;2023-04-10T07:07:53;101608.41;;;10.54;90.74
69836;BME280;57132;51.972;4.450;2023-04-10T07:10:18;101621.91;;;10.51;89.72
69836;BME280;57132;51.972;4.450;2023-04-10T07:12:44;101609.25;;;10.54;89.90
69836;BME280;57132;51.972;4.450;2023-04-10T07:15:09;101605.44;;;10.58;92.71
69836;BME280;57132;51.972;4.450;2023-04-10T07:17:36;101600.63;;;10.65;90.83
69836;BME280;57132;51.972;4.450;2023-04-10T07:20:02;101591.94;;;10.62;89.36
69836;BME280;57132;51.972;4.450;2023-04-10T07:22:27;101601.81;;;10.59;91.48
69836;BME280;57132;51.972;4.450;2023-04-10T07:24:52;101588.66;;;10.56;89.55
69836;BME280;57132;51.972;4.450;2023-04-10T07:27:18;101584.16;;;10.57;89.72
69836;BME280;57132;51.972;4.450;2023-04-10T07:29:44;101580.63;;;10.56;88.67
69836;BME280;57132;51.972;4.450;2023-04-10T07:32:11;101588.19;;;10.64;90.44
69836;BME280;57132;51.972;4.450;2023-04-10T07:34:36;101581.81;;;10.67;91.55
69836;BME280;57132;51.972;4.450;2023-04-10T07:37:02;101562.56;;;10.76;90.72
69836;BME280;57132;51.972;4.450;2023-04-10T07:39:28;101574.34;;;10.88;90.95
69836;BME280;57132;51.972;4.450;2023-04-10T07:41:53;101579.50;;;10.91;87.68
69836;BME280;57132;51.972;4.450;2023-04-10T07:44:19;101567.97;;;10.90;87.85
69836;BME280;57132;51.972;4.450;2023-04-10T07:46:44;101557.00;;;10.95;89.10
69836;BME280;57132;51.972;4.450;2023-04-10T07:49:10;101557.28;;;10.90;87.66
69836;BME280;57132;51.972;4.450;2023-04-10T07:51:36;101549.66;;;10.98;86.86
69836;BME280;57132;51.972;4.450;2023-04-10T07:54:02;101552.31;;;10.98;86.23
69836;BME280;57132;51.972;4.450;2023-04-10T07:56:28;101545.53;;;10.93;85.45
69836;BME280;57132;51.972;4.450;2023-04-10T07:58:58;101546.59;;;10.90;86.70
69836;BME280;57132;51.972;4.450;2023-04-10T08:01:23;101547.63;;;10.88;89.19
69836;BME280;57132;51.972;4.450;2023-04-10T08:03:49;101545.59;;;10.77;87.29
69836;BME280;57132;51.972;4.450;2023-04-10T08:06:14;101519.28;;;10.71;87.58
69836;BME280;57132;51.972;4.450;2023-04-10T08:08:41;101522.69;;;10.73;89.66
69836;BME280;57132;51.972;4.450;2023-04-10T08:11:23;101517.00;;;10.79;88.78
69836;BME280;57132;51.972;4.450;2023-04-10T08:13:50;101522.06;;;10.83;88.93
69836;BME280;57132;51.972;4.450;2023-04-10T08:16:17;101519.22;;;11.01;88.73
69836;BME280;57132;51.972;4.450;2023-04-10T08:18:42;101509.69;;;11.11;87.77
69836;BME280;57132;51.972;4.450;2023-04-10T08:21:07;101508.59;;;11.28;89.67
69836;BME280;57132;51.972;4.450;2023-04-10T08:23:33;101507.81;;;11.40;88.88
69836;BME280;57132;51.972;4.450;2023-04-10T08:25:58;101504.22;;;11.41;86.67
69836;BME280;57132;51.972;4.450;2023-04-10T08:28:25;101506.72;;;11.44;87.20
69836;BME280;57132;51.972;4.450;2023-04-10T08:30:52;101505.50;;;11.63;85.72
69836;BME280;57132;51.972;4.450;2023-04-10T08:33:17;101504.53;;;11.78;88.53
69836;BME280;57132;51.972;4.450;2023-04-10T08:35:46;101502.59;;;11.94;86.95
69836;BME280;57132;51.972;4.450;2023-04-10T08:38:12;101503.69;;;12.04;84.77
69836;BME280;57132;51.972;4.450;2023-04-10T08:40:37;101494.31;;;12.12;84.26
69836;BME280;57132;51.972;4.450;2023-04-10T08:43:02;101487.50;;;12.33;82.33
69836;BME280;57132;51.972;4.450;2023-04-10T08:45:28;101483.00;;;12.34;81.94
69836;BME280;57132;51.972;4.450;2023-04-10T08:47:55;101477.00;;;12.30;80.95
69836;BME280;57132;51.972;4.450;2023-04-10T08:50:22;101483.53;;;12.39;82.20
69836;BME280;57132;51.972;4.450;2023-04-10T08:52:50;101465.25;;;12.45;84.42
69836;BME280;57132;51.972;4.450;2023-04-10T08:55:16;101459.25;;;12.54;82.16
69836;BME280;57132;51.972;4.450;2023-04-10T08:57:42;101463.84;;;12.40;82.25
69836;BME280;57132;51.972;4.450;2023-04-10T09:00:10;101462.44;;;12.34;82.27
69836;BME280;57132;51.972;4.450;2023-04-10T09:02:39;101452.69;;;12.20;84.73
69836;BME280;57132;51.972;4.450;2023-04-10T09:05:09;101462.97;;;12.26;84.73
69836;BME280;57132;51.972;4.450;2023-04-10T09:07:36;101452.56;;;12.22;81.88
69836;BME280;57132;51.972;4.450;2023-04-10T09:10:01;101451.50;;;12.24;82.83
69836;BME280;57132;51.972;4.450;2023-04-10T09:12:26;101440.81;;;12.37;87.17
69836;BME280;57132;51.972;4.450;2023-04-10T09:14:51;101448.78;;;12.51;84.80
69836;BME280;57132;51.972;4.450;2023-04-10T09:17:24;101433.22;;;12.57;84.15
69836;BME280;57132;51.972;4.450;2023-04-10T09:19:54;101430.97;;;12.50;83.29
69836;BME280;57132;51.972;4.450;2023-04-10T09:22:31;101418.34;;;12.40;84.30
69836;BME280;57132;51.972;4.450;2023-04-10T09:24:58;101412.66;;;12.32;85.71
69836;BME280;57132;51.972;4.450;2023-04-10T09:29:56;101409.44;;;12.26;86.89
69836;BME280;57132;51.972;4.450;2023-04-10T09:32:42;101421.31;;;12.35;85.61
69836;BME280;57132;51.972;4.450;2023-04-10T09:35:12;101413.06;;;12.51;85.77
69836;BME280;57132;51.972;4.450;2023-04-10T09:37:38;101418.22;;;12.67;85.58
69836;BME280;57132;51.972;4.450;2023-04-10T09:40:06;101415.44;;;12.81;85.54
69836;BME280;57132;51.972;4.450;2023-04-10T09:42:43;101410.84;;;12.83;85.38
69836;BME280;57132;51.972;4.450;2023-04-10T09:45:08;101415.19;;;12.97;81.14
69836;BME280;57132;51.972;4.450;2023-04-10T09:47:33;101407.41;;;13.18;80.90
69836;BME280;57132;51.972;4.450;2023-04-10T09:49:59;101415.06;;;13.24;81.04
69836;BME280;57132;51.972;4.450;2023-04-10T09:52:28;101398.72;;;13.40;82.27
69836;BME280;57132;51.972;4.450;2023-04-10T09:54:56;101385.06;;;13.67;78.75
69836;BME280;57132;51.972;4.450;2023-04-10T09:57:25;101381.91;;;13.73;82.44
69836;BME280;57132;51.972;4.450;2023-04-10T09:59:55;101376.47;;;13.86;81.03
69836;BME280;57132;51.972;4.450;2023-04-10T10:02:24;101385.44;;;14.09;79.62
69836;BME280;57132;51.972;4.450;2023-04-10T10:04:50;101381.97;;;14.31;78.71
69836;BME280;57132;51.972;4.450;2023-04-10T10:07:18;101376.13;;;14.48;77.22
69836;BME280;57132;51.972;4.450;2023-04-10T10:09:45;101366.13;;;15.06;73.99
69836;BME280;57132;51.972;4.450;2023-04-10T10:12:14;101371.91;;;15.45;74.02
69836;BME280;57132;51.972;4.450;2023-04-10T10:17:20;101371.03;;;16.30;70.36
69836;BME280;57132;51.972;4.450;2023-04-10T10:19:54;101365.78;;;16.59;69.53
69836;BME280;57132;51.972;4.450;2023-04-10T10:22:24;101363.19;;;16.27;68.49
69836;BME280;57132;51.972;4.450;2023-04-10T10:24:50;101346.72;;;15.78;69.49
69836;BME280;57132;51.972;4.450;2023-04-10T10:27:22;101351.28;;;15.23;69.87
69836;BME280;57132;51.972;4.450;2023-04-10T10:29:48;101335.06;;;15.13;71.95
69836;BME280;57132;51.972;4.450;2023-04-10T10:32:16;101325.66;;;15.08;72.49
69836;BME280;57132;51.972;4.450;2023-04-10T10:34:42;101316.78;;;15.28;74.53
69836;BME280;57132;51.972;4.450;2023-04-10T10:37:08;101310.19;;;15.32;72.26
69836;BME280;57132;51.972;4.450;2023-04-10T10:39:52;101298.41;;;15.77;73.02
69836;BME280;57132;51.972;4.450;2023-04-10T10:42:32;101290.00;;;16.12;69.55
69836;BME280;57132;51.972;4.450;2023-04-10T10:47:28;101300.41;;;16.97;66.42
69836;BME280;57132;51.972;4.450;2023-04-10T10:49:59;101289.81;;;17.34;66.79
69836;BME280;57132;51.972;4.450;2023-04-10T10:52:47;101301.31;;;17.27;65.21
69836;BME280;57132;51.972;4.450;2023-04-10T10:57:47;101279.28;;;17.12;64.65
69836;BME280;57132;51.972;4.450;2023-04-10T11:00:14;101273.81;;;16.73;66.48
69836;BME280;57132;51.972;4.450;2023-04-10T11:02:39;101265.47;;;16.45;66.18
69836;BME280;57132;51.972;4.450;2023-04-10T11:05:05;101263.69;;;16.25;66.38
69836;BME280;57132;51.972;4.450;2023-04-10T11:13:28;101250.00;;;15.86;68.94
69836;BME280;57132;51.972;4.450;2023-04-10T11:15:55;101239.03;;;15.57;72.37
69836;BME280;57132;51.972;4.450;2023-04-10T11:19:03;101248.59;;;15.29;71.49
69836;BME280;57132;51.972;4.450;2023-04-10T11:21:28;101246.13;;;15.05;73.07
69836;BME280;57132;51.972;4.450;2023-04-10T11:26:35;101225.38;;;14.96;77.10
69836;BME280;57132;51.972;4.450;2023-04-10T11:29:02;101212.97;;;14.72;74.86
69836;BME280;57132;51.972;4.450;2023-04-10T11:31:27;101225.06;;;14.78;76.69
69836;BME280;57132;51.972;4.450;2023-04-10T11:36:22;101205.06;;;14.48;78.92
69836;BME280;57132;51.972;4.450;2023-04-10T11:39:02;101198.53;;;14.30;80.38
69836;BME280;57132;51.972;4.450;2023-04-10T11:41:34;101197.16;;;14.24;81.61
69836;BME280;57132;51.972;4.450;2023-04-10T11:44:06;101193.53;;;14.14;82.91
69836;BME280;57132;51.972;4.450;2023-04-10T11:46:36;101205.50;;;14.10;81.13
69836;BME280;57132;51.972;4.450;2023-04-10T11:49:03;101189.47;;;13.97;80.80
69836;BME280;57132;51.972;4.450;2023-04-10T11:51:31;101172.16;;;14.01;82.65
69836;BME280;57132;51.972;4.450;2023-04-10T11:54:08;101175.59;;;14.03;81.21
69836;BME280;57132;51.972;4.450;2023-04-10T11:56:35;101164.72;;;14.05;82.63
69836;BME280;57132;51.972;4.450;2023-04-10T11:59:01;101160.94;;;14.08;85.17
69836;BME280;57132;51.972;4.450;2023-04-10T12:01:31;101151.81;;;14.10;81.87
69836;BME280;57132;51.972;4.450;2023-04-10T12:03:57;101179.03;;;14.06;81.68
69836;BME280;57132;51.972;4.450;2023-04-10T12:06:25;101171.56;;;13.87;81.96
69836;BME280;57132;51.972;4.450;2023-04-10T12:08:51;101161.53;;;13.77;82.15
69836;BME280;57132;51.972;4.450;2023-04-10T12:11:23;101177.91;;;13.74;84.44
69836;BME280;57132;51.972;4.450;2023-04-10T12:13:54;101169.97;;;13.50;86.50
69836;BME280;57132;51.972;4.450;2023-04-10T12:16:20;101176.16;;;13.16;91.74
69836;BME280;57132;51.972;4.450;2023-04-10T12:18:46;101155.13;;;12.87;95.68
69836;BME280;57132;51.972;4.450;2023-04-10T12:21:12;101172.16;;;12.62;100.00
69836;BME280;57132;51.972;4.450;2023-04-10T12:23:38;101142.25;;;12.44;100.00
69836;BME280;57132;51.972;4.450;2023-04-10T12:26:14;101160.44;;;12.39;100.00
69836;BME280;57132;51.972;4.450;2023-04-10T12:28:48;101162.22;;;12.27;100.00
69836;BME280;57132;51.972;4.450;2023-04-10T12:31:14;101154.63;;;12.21;100.00
69836;BME280;57132;51.972;4.450;2023-04-10T12:33:43;101139.56;;;12.07;100.00
69836;BME280;57132;51.972;4.450;2023-04-10T12:36:22;101141.97;;;11.87;100.00
69836;BME280;57132;51.972;4.450;2023-04-10T12:38:48;101144.31;;;11.78;100.00
69836;BME280;57132;51.972;4.450;2023-04-10T12:41:20;101133.00;;;11.62;100.00
69836;BME280;57132;51.972;4.450;2023-04-10T12:43:47;101130.84;;;11.54;100.00
69836;BME280;57132;51.972;4.450;2023-04-10T12:46:23;101129.81;;;11.44;100.00
69836;BME280;57132;51.972;4.450;2023-04-10T12:48:49;101113.97;;;11.41;100.00
69836;BME280;57132;51.972;4.450;2023-04-10T12:51:14;101112.25;;;11.40;100.00
69836;BME280;57132;51.972;4.450;2023-04-10T12:53:43;101110.44;;;11.41;100.00
69836;BME280;57132;51.972;4.450;2023-04-10T12:56:09;101105.63;;;11.33;100.00
69836;BME280;57132;51.972;4.450;2023-04-10T12:58:36;101113.84;;;11.30;100.00
69836;BME280;57132;51.972;4.450;2023-04-10T13:01:07;101094.84;;;11.22;100.00
69836;BME280;57132;51.972;4.450;2023-04-10T13:03:35;101086.28;;;11.17;100.00
69836;BME280;57132;51.972;4.450;2023-04-10T13:06:01;101087.34;;;11.14;100.00
69836;BME280;57132;51.972;4.450;2023-04-10T13:08:27;101092.03;;;11.11;100.00
69836;BME280;57132;51.972;4.450;2023-04-10T13:10:53;101075.50;;;11.05;100.00
69836;BME280;57132;51.972;4.450;2023-04-10T13:13:19;101067.47;;;11.05;100.00
69836;BME280;57132;51.972;4.450;2023-04-10T13:15:44;101069.69;;;11.12;100.00
69836;BME280;57132;51.972;4.450;2023-04-10T13:18:10;101071.53;;;11.11;100.00
69836;BME280;57132;51.972;4.450;2023-04-10T13:20:38;101059.00;;;11.12;100.00
69836;BME280;57132;51.972;4.450;2023-04-10T13:23:05;101069.28;;;11.18;100.00